Time;durP1;ratioP1;P1;durP2;ratioP2;P2;SDS_P1;SDS_P2;PMS_P1;PMS_P2;Temp;Humidity;BMP_temperature;BMP_pressure;BME280_temperature;BME280_humidity;BME280_pressure;Samples;Min_cycle;Max_cycle;Signal;HPM_P1;HPM_P2
2021/12/21 00:02:24;;;;;;;;;;;-1.30;99.90;;;;;;5055707;28;19971;-80
2021/12/21 00:04:50;;;;;;;;;;;-1.40;99.90;;;;;;5057096;28;20011;-80
2021/12/21 00:07:15;;;;;;;;;;;-1.40;99.90;;;;;;5055847;28;20294;-80
2021/12/21 00:09:41;;;;;;;;;;;-1.50;99.90;;;;;;5057086;28;19975;-80
2021/12/21 00:12:07;;;;;;;;;;;-1.50;99.90;;;;;;5055632;28;19925;-80
2021/12/21 00:14:48;;;;;;;;;;;-1.40;99.90;;;;;;5057028;28;20394;-80
2021/12/21 00:20:08;;;;;;;;;;;-1.40;99.90;;;;;;5056950;28;19924;-80
2021/12/21 00:25:04;;;;;;;;;;;-1.40;99.90;;;;;;5055341;28;20011;-80
2021/12/21 00:27:30;;;;;;;;;;;-1.40;99.90;;;;;;5055730;28;20066;-80
2021/12/21 00:29:55;;;;;;;;;;;-1.40;99.90;;;;;;5039276;28;19925;-80
2021/12/21 00:32:21;;;;;;;;;;;-1.40;99.90;;;;;;5057392;28;19924;-80
2021/12/21 00:34:46;;;;;;;;;;;-1.40;99.90;;;;;;5055807;28;19972;-80
2021/12/21 00:37:12;;;;;;;;;;;-1.40;99.90;;;;;;5057086;28;19929;-80
2021/12/21 00:39:38;;;;;;;;;;;-0.90;99.90;;;;;;5056000;28;19925;-80
2021/12/21 00:42:03;;;;;;;;;;;-1.50;99.90;;;;;;5057122;28;20375;-80
2021/12/21 00:44:29;;;;;;;;;;;-1.50;99.90;;;;;;5055145;28;19928;-80
2021/12/21 00:46:55;;;;;;;;;;;-1.50;99.90;;;;;;5056860;28;20012;-80
2021/12/21 00:49:23;;;;;;;;;;;-1.50;99.90;;;;;;5055929;28;19976;-80
2021/12/21 00:51:48;;;;;;;;;;;-1.50;99.90;;;;;;5056688;28;19925;-80
2021/12/21 00:54:15;;;;;;;;;;;-1.50;99.90;;;;;;5055323;28;20353;-80
2021/12/21 01:00:05;;;;;;;;;;;-1.50;99.90;;;;;;5057093;28;20009;-80
2021/12/21 01:02:30;;;;;;;;;;;-1.40;99.90;;;;;;5057167;28;20283;-80
2021/12/21 01:04:57;;;;;;;;;;;-1.60;99.90;;;;;;5057233;28;19925;-80
2021/12/21 01:07:30;;;;;;;;;;;-1.60;99.90;;;;;;5056566;28;20342;-80
2021/12/21 01:10:31;;;;;;;;;;;-1.60;99.90;;;;;;5055679;28;19925;-80
2021/12/21 01:18:14;;;;;;;;;;;-1.60;99.90;;;;;;4979167;28;19932;-80
2021/12/21 01:20:49;;;;;;;;;;;-1.70;99.90;;;;;;4979154;28;19926;-80
2021/12/21 01:26:14;;;;;;;;;;;-1.70;99.90;;;;;;4979302;28;19926;-80
2021/12/21 01:28:51;;;;;;;;;;;-1.80;99.90;;;;;;4995853;28;20017;-80
2021/12/21 01:31:29;;;;;;;;;;;-1.70;99.90;;;;;;4979919;28;20101;-80
2021/12/21 01:39:28;;;;;;;;;;;-1.80;99.90;;;;;;4978939;28;20389;-80
2021/12/21 01:42:01;;;;;;;;;;;-1.80;99.90;;;;;;4979456;28;19933;-80
2021/12/21 01:49:42;;;;;;;;;;;-1.80;99.90;;;;;;4985304;28;19926;-80
2021/12/21 01:52:12;;;;;;;;;;;-1.80;99.90;;;;;;5024072;28;19982;-80
2021/12/21 01:54:38;;;;;;;;;;;-1.80;99.90;;;;;;5057457;28;20342;-80
2021/12/21 01:57:04;;;;;;;;;;;-1.80;99.90;;;;;;5056752;28;19925;-80
2021/12/21 01:59:31;;;;;;;;;;;-1.80;99.90;;;;;;5054366;28;20445;-80
2021/12/21 02:01:56;;;;;;;;;;;-1.80;99.90;;;;;;5055896;28;19931;-80
2021/12/21 02:04:22;;;;;;;;;;;-1.80;99.90;;;;;;5053435;28;19929;-80
2021/12/21 02:06:49;;;;;;;;;;;-1.90;99.90;;;;;;5055917;28;19928;-80
2021/12/21 02:09:15;;;;;;;;;;;-1.90;99.90;;;;;;5054419;28;19924;-80
2021/12/21 02:11:41;;;;;;;;;;;-1.90;99.90;;;;;;5055711;28;20356;-80
2021/12/21 02:14:09;;;;;;;;;;;-1.90;99.90;;;;;;5054453;28;19975;-80
2021/12/21 02:16:46;;;;;;;;;;;-1.90;99.90;;;;;;5055649;28;19925;-80
2021/12/21 02:19:37;;;;;;;;;;;-1.90;99.90;;;;;;5053846;28;19921;-80
2021/12/21 02:22:11;;;;;;;;;;;-1.90;99.90;;;;;;5054734;28;19925;-80
2021/12/21 02:25:08;;;;;;;;;;;-1.90;99.90;;;;;;5053669;28;19928;-80
2021/12/21 02:27:41;;;;;;;;;;;-1.90;99.90;;;;;;5054712;28;19927;-80
2021/12/21 02:30:08;;;;;;;;;;;-1.90;99.90;;;;;;5054109;28;20284;-80
2021/12/21 02:32:33;;;;;;;;;;;-1.90;99.90;;;;;;5055840;28;20279;-80
2021/12/21 02:34:59;;;;;;;;;;;-2.00;99.90;;;;;;5053843;28;19925;-80
2021/12/21 02:37:24;;;;;;;;;;;-2.00;99.90;;;;;;5055236;28;19933;-80
2021/12/21 02:39:50;;;;;;;;;;;-2.00;99.90;;;;;;5054245;28;19954;-80
2021/12/21 02:42:15;;;;;;;;;;;-1.80;99.90;;;;;;5055232;28;20436;-80
2021/12/21 02:44:47;;;;;;;;;;;-2.00;99.90;;;;;;5053974;28;20055;-80
2021/12/21 02:47:12;;;;;;;;;;;-1.90;99.90;;;;;;5055500;28;20283;-80
2021/12/21 02:49:37;;;;;;;;;;;-1.90;99.90;;;;;;5055283;28;19925;-80
2021/12/21 02:52:03;;;;;;;;;;;-2.00;99.90;;;;;;5055658;28;19932;-81
2021/12/21 02:54:29;;;;;;;;;;;-2.00;99.90;;;;;;5055465;28;20325;-80
2021/12/21 02:56:54;;;;;;;;;;;-2.00;99.90;;;;;;5055671;28;20298;-80
2021/12/21 02:59:20;;;;;;;;;;;-2.00;99.90;;;;;;5055729;28;20331;-80
2021/12/21 03:01:45;;;;;;;;;;;-2.00;99.90;;;;;;5053905;28;19924;-80
2021/12/21 03:04:11;;;;;;;;;;;-1.90;99.90;;;;;;5053965;28;19925;-80
2021/12/21 03:11:56;;;;;;;;;;;-2.00;99.90;;;;;;5053891;28;19927;-80
2021/12/21 03:14:22;;;;;;;;;;;-2.00;99.90;;;;;;5055423;28;19933;-80
2021/12/21 03:16:48;;;;;;;;;;;-2.00;99.90;;;;;;5057380;28;20363;-80
2021/12/21 03:19:13;;;;;;;;;;;-2.00;99.90;;;;;;5059457;28;19993;-80
2021/12/21 03:21:39;;;;;;;;;;;-2.10;99.90;;;;;;5041205;28;20061;-80
2021/12/21 03:24:06;;;;;;;;;;;-2.10;99.90;;;;;;5059187;28;19925;-80
2021/12/21 03:26:32;;;;;;;;;;;-2.00;99.90;;;;;;5057509;28;19932;-80
2021/12/21 03:28:57;;;;;;;;;;;-2.10;99.90;;;;;;5058991;28;19928;-80
2021/12/21 03:31:23;;;;;;;;;;;-2.10;99.90;;;;;;5057644;28;19940;-80
2021/12/21 03:33:49;;;;;;;;;;;-2.10;99.90;;;;;;5058986;28;19955;-80
2021/12/21 03:36:18;;;;;;;;;;;-2.10;99.90;;;;;;5057528;28;19979;-80
2021/12/21 03:38:52;;;;;;;;;;;-2.10;99.90;;;;;;5058654;28;19932;-80
2021/12/21 03:41:19;;;;;;;;;;;-2.10;99.90;;;;;;5057072;28;19979;-80
2021/12/21 03:43:45;;;;;;;;;;;-2.10;99.90;;;;;;5058718;28;19986;-80
2021/12/21 03:46:13;;;;;;;;;;;-2.10;99.90;;;;;;5057582;28;19925;-80
2021/12/21 03:48:43;;;;;;;;;;;-2.10;99.90;;;;;;5057003;28;19920;-80
2021/12/21 03:51:09;;;;;;;;;;;-2.10;99.90;;;;;;5057474;28;19971;-80
2021/12/21 03:53:35;;;;;;;;;;;-2.10;99.90;;;;;;5058503;28;19921;-80
2021/12/21 03:56:49;;;;;;;;;;;-2.10;99.90;;;;;;5056878;28;19925;-80
2021/12/21 03:58:46;;;;;;;;;;;-2.20;99.90;;;;;;5047598;28;19921;-80
2021/12/21 04:01:12;;;;;;;;;;;-2.20;99.90;;;;;;5056912;28;19936;-80
2021/12/21 04:03:37;;;;;;;;;;;-2.20;99.90;;;;;;5058358;28;20015;-80
2021/12/21 04:06:03;;;;;;;;;;;-2.20;99.90;;;;;;5056653;28;19925;-80
2021/12/21 04:08:29;;;;;;;;;;;-2.20;99.90;;;;;;5056880;28;20024;-80
2021/12/21 04:10:54;;;;;;;;;;;-2.30;99.90;;;;;;5056597;28;19925;-80
2021/12/21 04:16:42;;;;;;;;;;;-2.20;99.90;;;;;;5057980;28;20356;-80
2021/12/21 04:19:08;;;;;;;;;;;-2.30;99.90;;;;;;5056814;28;19971;-80
2021/12/21 04:21:33;;;;;;;;;;;-2.20;99.90;;;;;;5056201;28;20363;-80
2021/12/21 04:23:59;;;;;;;;;;;-2.30;99.90;;;;;;5056309;28;19966;-80
2021/12/21 04:26:24;;;;;;;;;;;-2.30;99.90;;;;;;5057431;28;19925;-80
2021/12/21 04:28:50;;;;;;;;;;;-2.40;99.90;;;;;;5057615;28;19925;-80
2021/12/21 04:31:15;;;;;;;;;;;-2.40;99.90;;;;;;5057507;28;19924;-80
2021/12/21 04:33:45;;;;;;;;;;;-2.40;99.90;;;;;;5056820;28;19925;-80
2021/12/21 04:36:11;;;;;;;;;;;-2.50;99.90;;;;;;5040174;28;20331;-80
2021/12/21 04:38:40;;;;;;;;;;;-2.50;99.90;;;;;;5057627;28;19970;-80
2021/12/21 04:47:50;;;;;;;;;;;-2.40;99.90;;;;;;5035964;28;20437;-80
2021/12/21 04:50:16;;;;;;;;;;;-2.40;99.90;;;;;;5020834;28;19925;-80
2021/12/21 04:52:41;;;;;;;;;;;-2.50;99.90;;;;;;5020004;28;19995;-80
2021/12/21 04:55:07;;;;;;;;;;;-2.40;99.90;;;;;;5019983;28;19925;-80
2021/12/21 04:57:33;;;;;;;;;;;-2.40;99.90;;;;;;5018791;28;19932;-80
2021/12/21 04:59:58;;;;;;;;;;;-2.40;99.90;;;;;;5019025;28;19936;-80
2021/12/21 05:02:24;;;;;;;;;;;-2.40;99.90;;;;;;5035344;28;20299;-79
2021/12/21 05:04:49;;;;;;;;;;;-2.40;99.90;;;;;;5018838;28;19960;-80
2021/12/21 05:07:21;;;;;;;;;;;-2.40;99.90;;;;;;5035253;28;20375;-80
2021/12/21 05:09:55;;;;;;;;;;;-2.40;99.90;;;;;;5019343;28;19928;-80
2021/12/21 05:12:20;;;;;;;;;;;-2.40;99.90;;;;;;5034967;28;19925;-80
2021/12/21 05:14:46;;;;;;;;;;;-2.40;99.90;;;;;;5034616;28;19979;-80
2021/12/21 05:17:11;;;;;;;;;;;-2.40;99.90;;;;;;5057470;28;19992;-80
2021/12/21 05:19:37;;;;;;;;;;;-2.40;99.90;;;;;;5055866;28;19978;-80
2021/12/21 05:22:02;;;;;;;;;;;-2.40;99.90;;;;;;5057300;28;19994;-80
2021/12/21 05:24:28;;;;;;;;;;;-2.40;99.90;;;;;;5055546;28;20440;-80
2021/12/21 05:26:53;;;;;;;;;;;-2.40;99.90;;;;;;5056813;28;19925;-80
2021/12/21 05:29:20;;;;;;;;;;;-2.50;99.90;;;;;;5055581;28;19925;-80
2021/12/21 05:31:45;;;;;;;;;;;-2.50;99.90;;;;;;5057011;28;20287;-80
2021/12/21 05:34:11;;;;;;;;;;;-2.50;99.90;;;;;;5054988;28;19925;-80
2021/12/21 05:36:36;;;;;;;;;;;-2.50;99.90;;;;;;5056567;28;19978;-80
2021/12/21 05:39:15;;;;;;;;;;;-2.50;99.90;;;;;;5055554;28;19936;-80
2021/12/21 05:41:49;;;;;;;;;;;-2.40;99.90;;;;;;5055315;28;19925;-80
2021/12/21 05:44:15;;;;;;;;;;;-2.40;99.90;;;;;;5057253;28;19978;-80
2021/12/21 05:46:40;;;;;;;;;;;-2.40;99.90;;;;;;5056979;28;19925;-80
2021/12/21 05:49:06;;;;;;;;;;;-2.40;99.90;;;;;;5056674;28;19978;-80
2021/12/21 05:51:32;;;;;;;;;;;-2.40;99.90;;;;;;5056689;28;19979;-80
2021/12/21 05:53:57;;;;;;;;;;;-2.40;99.90;;;;;;5057064;28;19950;-80
2021/12/21 05:56:23;;;;;;;;;;;-2.40;99.90;;;;;;5055116;28;19932;-80
2021/12/21 06:02:10;;;;;;;;;;;-2.40;99.90;;;;;;5056431;28;20354;-79
2021/12/21 06:04:36;;;;;;;;;;;-2.40;99.90;;;;;;5056531;28;19953;-80
2021/12/21 06:07:01;;;;;;;;;;;-2.40;99.90;;;;;;5054508;28;19998;-80
2021/12/21 06:09:28;;;;;;;;;;;-2.40;99.90;;;;;;5056044;28;20328;-80
2021/12/21 06:12:11;;;;;;;;;;;-2.40;99.90;;;;;;5054835;28;19982;-80
2021/12/21 06:15:08;;;;;;;;;;;-2.40;99.90;;;;;;5056865;28;19978;-80
2021/12/21 06:26:02;;;;;;;;;;;-2.40;99.90;;;;;;5055467;28;20019;-80
2021/12/21 06:28:28;;;;;;;;;;;-2.40;99.90;;;;;;5055371;28;20421;-80
2021/12/21 06:30:54;;;;;;;;;;;-2.40;99.90;;;;;;5054199;28;20023;-80
2021/12/21 06:33:19;;;;;;;;;;;-2.40;99.90;;;;;;5055178;28;19921;-80
2021/12/21 06:35:45;;;;;;;;;;;-2.40;99.90;;;;;;5055562;28;19925;-79
2021/12/21 06:38:11;;;;;;;;;;;-2.40;99.90;;;;;;5055417;28;20387;-80
2021/12/21 06:40:37;;;;;;;;;;;-2.40;99.90;;;;;;5055190;28;19924;-80
2021/12/21 06:43:03;;;;;;;;;;;-2.40;99.90;;;;;;5053869;28;19928;-80
2021/12/21 06:53:46;;;;;;;;;;;-2.50;99.90;;;;;;5059358;28;19925;-80
2021/12/21 06:56:11;;;;;;;;;;;-2.50;99.90;;;;;;5059588;28;19971;-80
2021/12/21 06:58:37;;;;;;;;;;;-2.50;99.90;;;;;;5057828;28;19972;-80
2021/12/21 07:01:04;;;;;;;;;;;-2.50;99.90;;;;;;5058162;28;20020;-80
2021/12/21 07:03:29;;;;;;;;;;;-2.50;99.90;;;;;;5059287;28;20417;-80
2021/12/21 07:05:59;;;;;;;;;;;-2.50;99.90;;;;;;5059305;28;19924;-80
2021/12/21 07:08:28;;;;;;;;;;;-2.50;99.90;;;;;;5057764;28;20374;-80
2021/12/21 07:11:04;;;;;;;;;;;-1.80;99.90;;;;;;5059104;28;19925;-80
2021/12/21 07:18:58;;;;;;;;;;;-2.50;99.90;;;;;;5058552;28;19929;-80
2021/12/21 07:21:23;;;;;;;;;;;-2.50;99.90;;;;;;5057556;28;19932;-80
2021/12/21 07:23:51;;;;;;;;;;;-2.50;99.90;;;;;;5059358;28;19925;-79
2021/12/21 07:26:16;;;;;;;;;;;-2.50;99.90;;;;;;5057904;28;20384;-80
2021/12/21 07:28:42;;;;;;;;;;;-2.50;99.90;;;;;;5058514;28;19984;-80
2021/12/21 07:31:08;;;;;;;;;;;-2.50;99.90;;;;;;5059054;28;19979;-80
2021/12/21 07:33:34;;;;;;;;;;;-2.50;99.90;;;;;;5057126;28;19924;-80
2021/12/21 07:35:59;;;;;;;;;;;-2.50;99.90;;;;;;5058641;28;20354;-80
2021/12/21 07:38:26;;;;;;;;;;;-2.50;99.90;;;;;;5057868;28;20019;-80
2021/12/21 07:40:52;;;;;;;;;;;-2.60;99.90;;;;;;5058421;28;19982;-80
2021/12/21 07:43:17;;;;;;;;;;;-2.50;99.90;;;;;;5056735;28;19972;-80
2021/12/21 07:45:43;;;;;;;;;;;-2.50;99.90;;;;;;5039805;28;19925;-80
2021/12/21 07:48:08;;;;;;;;;;;-2.50;99.90;;;;;;5040110;28;19978;-79
2021/12/21 07:50:34;;;;;;;;;;;-2.50;99.90;;;;;;5056904;28;20329;-80
2021/12/21 07:53:01;;;;;;;;;;;-2.50;99.90;;;;;;5057012;28;20388;-80
2021/12/21 07:55:27;;;;;;;;;;;-2.50;99.90;;;;;;5056499;28;19931;-80
2021/12/21 07:57:52;;;;;;;;;;;-2.60;99.90;;;;;;5057163;28;20007;-79
2021/12/21 08:00:19;;;;;;;;;;;-2.50;99.90;;;;;;5061146;28;19925;-80
2021/12/21 08:02:45;;;;;;;;;;;-2.50;99.90;;;;;;5065566;28;20007;-80
2021/12/21 08:05:10;;;;;;;;;;;-2.50;99.90;;;;;;5061529;28;19987;-79
2021/12/21 08:07:45;;;;;;;;;;;-2.50;99.90;;;;;;5058490;28;19924;-79
2021/12/21 08:10:29;;;;;;;;;;;-2.50;99.90;;;;;;5057155;28;19925;-79
2021/12/21 08:12:56;;;;;;;;;;;-2.50;99.90;;;;;;5057866;28;19928;-80
2021/12/21 08:15:22;;;;;;;;;;;-2.30;99.90;;;;;;5057265;28;19960;-80
2021/12/21 08:17:47;;;;;;;;;;;-2.50;99.90;;;;;;5057260;28;19921;-80
2021/12/21 08:20:13;;;;;;;;;;;-2.50;99.90;;;;;;5056987;28;19931;-80
2021/12/21 08:22:38;;;;;;;;;;;-2.50;99.90;;;;;;5056922;28;20013;-79
2021/12/21 08:25:06;;;;;;;;;;;-2.50;99.90;;;;;;5055794;28;20349;-79
2021/12/21 08:27:32;;;;;;;;;;;-2.50;99.90;;;;;;5055442;28;20043;-80
2021/12/21 08:29:57;;;;;;;;;;;-2.50;99.90;;;;;;5056889;28;19948;-80
2021/12/21 08:32:23;;;;;;;;;;;-2.50;99.90;;;;;;5055099;28;19928;-80
2021/12/21 08:34:48;;;;;;;;;;;-2.40;99.90;;;;;;5055526;28;19982;-80
2021/12/21 08:37:14;;;;;;;;;;;-2.40;99.90;;;;;;5055321;28;19928;-80
2021/12/21 08:39:40;;;;;;;;;;;-2.40;99.90;;;;;;5056339;28;19928;-80
2021/12/21 08:42:07;;;;;;;;;;;-2.40;99.90;;;;;;5055465;28;19925;-80
2021/12/21 08:47:55;;;;;;;;;;;-2.30;99.90;;;;;;5057009;28;19967;-80
2021/12/21 08:50:21;;;;;;;;;;;-2.30;99.90;;;;;;5055903;28;19931;-80
2021/12/21 08:52:46;;;;;;;;;;;-2.30;99.90;;;;;;5056220;28;20286;-80
2021/12/21 08:55:12;;;;;;;;;;;-2.20;99.90;;;;;;5056147;28;19988;-80
2021/12/21 08:57:38;;;;;;;;;;;-2.20;99.90;;;;;;5056421;28;19925;-80
2021/12/21 09:03:25;;;;;;;;;;;-2.10;99.90;;;;;;5057224;28;19966;-80
2021/12/21 09:05:52;;;;;;;;;;;-2.10;99.90;;;;;;5057227;28;19924;-80
2021/12/21 09:08:18;;;;;;;;;;;-2.10;99.90;;;;;;5056543;28;19932;-79
2021/12/21 09:10:44;;;;;;;;;;;-2.10;99.90;;;;;;5057973;28;19925;-80
2021/12/21 09:13:10;;;;;;;;;;;-2.00;99.90;;;;;;5057118;28;19925;-80
2021/12/21 09:15:36;;;;;;;;;;;-2.00;99.90;;;;;;5058100;28;19978;-79
2021/12/21 09:18:02;;;;;;;;;;;-2.00;99.90;;;;;;5056427;28;19936;-80
2021/12/21 09:20:28;;;;;;;;;;;-2.00;99.90;;;;;;5056888;28;19925;-80
2021/12/21 09:22:55;;;;;;;;;;;-2.00;99.90;;;;;;5056710;28;20014;-80
2021/12/21 09:25:20;;;;;;;;;;;-2.00;99.90;;;;;;5056527;28;19947;-80
2021/12/21 09:27:46;;;;;;;;;;;-1.90;99.90;;;;;;5055732;28;19925;-80
2021/12/21 09:33:33;;;;;;;;;;;-1.90;99.90;;;;;;5057458;28;19919;-80
2021/12/21 09:35:58;;;;;;;;;;;-1.80;99.90;;;;;;5056362;28;19924;-80
2021/12/21 09:38:24;;;;;;;;;;;-1.80;99.90;;;;;;5055500;28;20000;-80
2021/12/21 09:40:49;;;;;;;;;;;-1.80;99.90;;;;;;5057260;28;19932;-80
2021/12/21 09:43:15;;;;;;;;;;;-1.80;99.90;;;;;;5055544;28;20355;-80
2021/12/21 09:45:40;;;;;;;;;;;-1.70;99.90;;;;;;5054732;28;20003;-80
2021/12/21 09:48:06;;;;;;;;;;;-1.60;99.90;;;;;;5056962;28;19931;-80
2021/12/21 09:50:32;;;;;;;;;;;-1.60;99.90;;;;;;5057098;28;19939;-81
2021/12/21 09:52:58;;;;;;;;;;;-1.50;99.90;;;;;;5058169;28;19928;-80
2021/12/21 09:55:23;;;;;;;;;;;-1.40;99.90;;;;;;5057849;28;19925;-82
2021/12/21 09:57:49;;;;;;;;;;;-1.40;99.90;;;;;;5057610;28;20390;-80
2021/12/21 10:03:37;;;;;;;;;;;-1.30;99.90;;;;;;5058205;28;19943;-80
2021/12/21 10:06:07;;;;;;;;;;;-1.30;99.90;;;;;;5058399;28;19925;-80
2021/12/21 10:08:33;;;;;;;;;;;-1.20;99.90;;;;;;5056284;28;19975;-80
2021/12/21 10:10:59;;;;;;;;;;;-1.20;99.90;;;;;;5056963;28;20299;-80
2021/12/21 10:13:26;;;;;;;;;;;-1.20;99.90;;;;;;5056996;28;19925;-80
2021/12/21 10:15:53;;;;;;;;;;;-1.20;99.90;;;;;;5055398;28;19925;-80
2021/12/21 10:18:26;;;;;;;;;;;-1.10;99.90;;;;;;5056239;28;19925;-80
2021/12/21 10:20:52;;;;;;;;;;;-1.00;99.90;;;;;;5054436;28;19929;-80
2021/12/21 10:23:17;;;;;;;;;;;-1.00;99.90;;;;;;5055638;28;19924;-80
2021/12/21 10:25:48;;;;;;;;;;;-0.90;99.90;;;;;;5054995;28;20393;-80
2021/12/21 10:28:32;;;;;;;;;;;-0.80;99.90;;;;;;5054885;28;19971;-80
2021/12/21 10:30:59;;;;;;;;;;;-0.80;99.90;;;;;;5056866;28;20002;-80
2021/12/21 10:33:26;;;;;;;;;;;-0.70;99.90;;;;;;5055300;28;20286;-80
2021/12/21 10:35:52;;;;;;;;;;;-0.70;99.90;;;;;;5053335;28;20009;-81
2021/12/21 10:38:27;;;;;;;;;;;-0.50;99.90;;;;;;5054469;28;19925;-80
2021/12/21 10:40:53;;;;;;;;;;;-0.50;99.90;;;;;;5054296;28;19955;-80
2021/12/21 10:43:18;;;;;;;;;;;-0.30;99.90;;;;;;5054210;28;20353;-80
2021/12/21 10:45:44;;;;;;;;;;;-0.30;99.90;;;;;;5053062;28;19924;-80
2021/12/21 10:48:15;;;;;;;;;;;-0.20;99.90;;;;;;5053151;28;19925;-80
2021/12/21 10:50:42;;;;;;;;;;;-0.20;99.90;;;;;;5053236;28;20008;-80
2021/12/21 10:53:14;;;;;;;;;;;-0.20;99.90;;;;;;5036590;28;19925;-80
2021/12/21 10:55:40;;;;;;;;;;;-0.20;99.90;;;;;;5054463;28;19960;-80
2021/12/21 10:58:11;;;;;;;;;;;-0.20;99.90;;;;;;5053159;28;19932;-80
2021/12/21 11:04:02;;;;;;;;;;;-0.10;99.90;;;;;;5054216;28;19983;-80
2021/12/21 11:06:34;;;;;;;;;;;-0.10;99.90;;;;;;5036244;28;19924;-80
2021/12/21 11:09:04;;;;;;;;;;;-0.10;99.90;;;;;;5054039;28;20375;-80
2021/12/21 11:11:34;;;;;;;;;;;0.00;99.90;;;;;;5053001;28;19929;-80
2021/12/21 11:14:05;;;;;;;;;;;0.00;99.90;;;;;;5053321;28;19929;-80
2021/12/21 11:16:39;;;;;;;;;;;0.10;99.90;;;;;;5053041;28;20019;-80
2021/12/21 11:19:05;;;;;;;;;;;0.00;99.90;;;;;;5054636;28;19924;-80
2021/12/21 11:21:31;;;;;;;;;;;0.10;99.90;;;;;;5055066;28;19948;-80
2021/12/21 11:24:00;;;;;;;;;;;0.20;99.90;;;;;;5054614;28;19929;-80
2021/12/21 11:26:26;;;;;;;;;;;0.20;99.90;;;;;;5055300;28;19978;-80
2021/12/21 11:28:54;;;;;;;;;;;0.20;99.90;;;;;;5052858;28;19934;-80
2021/12/21 11:31:20;;;;;;;;;;;0.30;99.90;;;;;;5054294;28;20311;-80
2021/12/21 11:33:47;;;;;;;;;;;0.30;99.90;;;;;;5054057;28;19925;-80
2021/12/21 11:38:57;;;;;;;;;;;0.40;99.90;;;;;;5057521;28;19925;-80
2021/12/21 11:41:23;;;;;;;;;;;0.40;99.90;;;;;;5056552;28;19962;-80
2021/12/21 11:43:54;;;;;;;;;;;0.60;99.90;;;;;;5055874;28;19924;-80
2021/12/21 11:46:25;;;;;;;;;;;0.70;99.90;;;;;;5057562;28;19924;-80
2021/12/21 11:48:55;;;;;;;;;;;0.70;99.90;;;;;;5057599;28;19932;-80
2021/12/21 11:51:25;;;;;;;;;;;0.80;99.90;;;;;;5056110;28;19932;-80
2021/12/21 11:53:51;;;;;;;;;;;0.90;99.90;;;;;;5057577;28;19925;-80
2021/12/21 11:56:19;;;;;;;;;;;1.00;99.90;;;;;;5057853;28;20302;-80
2021/12/21 11:58:44;;;;;;;;;;;1.00;99.90;;;;;;5057731;28;19925;-80
2021/12/21 12:01:16;;;;;;;;;;;1.10;99.90;;;;;;5056514;28;19977;-80
2021/12/21 12:03:55;;;;;;;;;;;1.10;99.90;;;;;;5055988;28;19925;-80
2021/12/21 12:06:21;;;;;;;;;;;1.20;99.90;;;;;;5055936;28;19924;-80
2021/12/21 12:08:52;;;;;;;;;;;1.20;99.90;;;;;;5056223;28;19967;-80
2021/12/21 12:11:22;;;;;;;;;;;1.30;99.90;;;;;;5058330;28;19924;-80
2021/12/21 12:13:48;;;;;;;;;;;1.30;99.90;;;;;;5056617;28;19921;-81
2021/12/21 12:16:15;;;;;;;;;;;1.40;99.90;;;;;;5057653;28;20290;-81
2021/12/21 12:18:48;;;;;;;;;;;1.40;99.90;;;;;;5056406;28;19921;-81
2021/12/21 12:21:18;;;;;;;;;;;1.50;99.90;;;;;;5055811;28;19925;-80
2021/12/21 12:23:44;;;;;;;;;;;1.50;99.90;;;;;;5038758;28;20341;-80
2021/12/21 12:26:19;;;;;;;;;;;1.40;99.90;;;;;;5055662;28;19925;-80
2021/12/21 12:28:44;;;;;;;;;;;1.50;99.90;;;;;;5056096;28;19976;-80
2021/12/21 12:33:15;;;;;;;20.48;9.77;;;1.50;99.90;;;;;;5008123;27;20420;-80
2021/12/21 12:35:44;;;;;;;20.80;9.05;;;1.60;99.90;;;;;;5006655;28;20458;-79
2021/12/21 12:38:12;;;;;;;16.83;9.27;;;1.60;99.90;;;;;;5008069;28;20050;-79
2021/12/21 12:40:42;;;;;;;18.30;9.98;;;1.70;99.90;;;;;;5008037;28;20050;-79
2021/12/21 12:43:14;;;;;;;17.25;9.20;;;1.70;99.90;;;;;;5006474;28;20042;-79
2021/12/21 12:45:49;;;;;;;19.13;9.52;;;1.70;99.90;;;;;;5006691;28;20129;-79
2021/12/21 12:48:23;;;;;;;18.13;9.13;;;1.70;99.90;;;;;;5007621;28;20042;-80
2021/12/21 12:50:51;;;;;;;17.83;9.68;;;1.80;99.90;;;;;;5006579;28;20050;-79
2021/12/21 12:53:17;;;;;;;18.27;8.40;;;1.80;99.90;;;;;;5007465;28;20488;-79
2021/12/21 12:55:50;;;;;;;14.07;7.28;;;1.90;99.90;;;;;;5006384;28;20137;-79
2021/12/21 12:58:22;;;;;;;13.63;7.72;;;1.90;99.90;;;;;;5006584;28;20400;-79
2021/12/21 13:01:02;;;;;;;14.85;6.53;;;1.90;99.90;;;;;;5007320;28;20427;-79
2021/12/21 13:03:41;;;;;;;12.77;7.53;;;2.00;99.90;;;;;;5006459;28;20052;-79
2021/12/21 13:06:15;;;;;;;16.27;7.78;;;2.00;99.90;;;;;;5007354;28;20485;-79
2021/12/21 13:08:42;;;;;;;14.52;7.93;;;2.00;99.90;;;;;;5007400;28;20038;-79
2021/12/21 13:11:09;;;;;;;15.68;6.93;;;2.10;99.90;;;;;;5005962;28;20099;-80
2021/12/21 13:13:35;;;;;;;13.98;6.93;;;2.20;99.90;;;;;;5007606;28;20061;-79
2021/12/21 13:16:07;;;;;;;13.25;6.60;;;2.20;99.90;;;;;;5006338;28;20046;-79
2021/12/21 13:18:41;;;;;;;13.90;6.88;;;2.20;99.90;;;;;;5007316;28;20450;-79
2021/12/21 13:21:21;;;;;;;11.68;5.82;;;2.80;99.90;;;;;;4989816;28;20054;-79
2021/12/21 13:23:51;;;;;;;11.45;6.05;;;2.30;99.90;;;;;;4989559;28;20046;-79
2021/12/21 13:26:19;;;;;;;16.92;6.28;;;2.30;99.90;;;;;;5007155;28;20061;-79
2021/12/21 13:28:52;;;;;;;10.32;5.63;;;2.30;99.90;;;;;;5007265;28;20042;-79
2021/12/21 13:31:20;;;;;;;15.13;5.88;;;2.30;99.90;;;;;;5005759;28;20400;-79
2021/12/21 13:34:00;;;;;;;11.85;5.13;;;2.30;99.90;;;;;;5007111;28;20087;-79
2021/12/21 13:36:47;;;;;;;10.88;5.55;;;2.50;99.90;;;;;;5005447;28;20049;-80
2021/12/21 13:39:29;;;;;;;9.02;5.07;;;2.90;99.90;;;;;;5007051;28;20046;-79
2021/12/21 13:42:04;;;;;;;10.52;5.60;;;3.80;99.90;;;;;;5007085;28;20042;-80
2021/12/21 13:44:36;;;;;;;;;;;4.40;99.90;;;;;;4993817;28;20050;-80
2021/12/21 13:47:14;;;;;;;8.57;4.75;;;5.00;99.90;;;;;;4992990;28;19922;-79
2021/12/21 13:50:00;;;;;;;10.82;5.10;;;5.50;99.90;;;;;;4993211;28;20472;-79
2021/12/21 13:52:30;;;;;;;;;;;6.00;99.90;;;;;;4988862;28;20050;-80
2021/12/21 13:54:57;;;;;;;7.93;4.82;;;6.50;99.90;;;;;;4993125;28;19922;-80
2021/12/21 13:57:25;;;;;;;8.45;5.00;;;6.00;99.90;;;;;;4994117;28;20481;-80
2021/12/21 13:59:54;;;;;;;9.52;5.03;;;5.80;99.90;;;;;;4994475;28;20051;-80
2021/12/21 14:02:26;;;;;;;8.32;5.15;;;5.50;99.90;;;;;;4995250;28;20050;-79
2021/12/21 14:05:00;;;;;;;11.10;5.53;;;5.20;99.90;;;;;;4994336;28;20164;-79
2021/12/21 14:07:29;;;;;;;13.60;5.50;;;4.80;99.90;;;;;;4995075;28;20061;-80
2021/12/21 14:10:13;;;;;;;9.48;5.57;;;4.60;99.90;;;;;;4995182;28;20042;-79
2021/12/21 14:12:39;;;;;;;13.00;5.75;;;4.50;99.90;;;;;;4993712;28;20061;-80
2021/12/21 14:15:06;;;;;;;8.82;5.63;;;4.30;99.90;;;;;;4996488;28;20046;-80
2021/12/21 14:17:32;;;;;;;12.52;6.50;;;4.10;99.90;;;;;;4993789;28;20049;-79
2021/12/21 14:19:59;;;;;;;10.93;5.63;;;4.00;99.90;;;;;;4992148;28;20042;-80
2021/12/21 14:22:25;;;;;;;15.27;6.20;;;3.80;99.90;;;;;;4993723;28;20042;-80
2021/12/21 14:24:50;;;;;;;14.70;6.60;;;3.50;99.90;;;;;;4993416;28;20442;-80
2021/12/21 14:27:18;;;;;;;11.13;5.68;;;3.20;99.90;;;;;;4992142;28;20047;-79
2021/12/21 14:29:44;;;;;;;13.90;6.22;;;2.90;99.90;;;;;;4993340;28;20043;-80
2021/12/21 14:34:42;;;;;;;11.82;6.70;;;2.50;99.90;;;;;;4993240;28;20097;-80
2021/12/21 14:37:14;;;;;;;13.13;6.70;;;2.40;99.90;;;;;;4991923;28;20050;-79
2021/12/21 14:39:46;;;;;;;14.93;7.50;;;2.30;99.90;;;;;;4993026;28;20046;-80
2021/12/21 14:42:17;;;;;;;16.35;7.28;;;2.10;99.90;;;;;;4991573;28;20099;-80
2021/12/21 14:44:53;;;;;;;13.18;7.10;;;1.90;99.90;;;;;;4975503;28;20069;-79
2021/12/21 14:47:21;;;;;;;15.30;7.80;;;1.70;99.90;;;;;;4975659;28;20046;-79
2021/12/21 14:49:52;;;;;;;17.17;8.63;;;1.60;99.90;;;;;;4991852;28;20454;-79
2021/12/21 14:52:22;;;;;;;16.00;8.45;;;1.60;99.90;;;;;;4991503;28;20104;-79
2021/12/21 14:54:52;;;;;;;18.20;8.25;;;1.50;99.90;;;;;;4991769;28;20050;-79
2021/12/21 14:57:28;;;;;;;16.10;8.95;;;1.40;99.90;;;;;;4992653;28;20130;-79
2021/12/21 14:59:54;;;;;;;19.58;10.00;;;1.30;99.90;;;;;;4991438;28;20057;-79
2021/12/21 15:02:48;;;;;;;21.17;10.43;;;1.20;99.90;;;;;;4992695;28;20038;-79
2021/12/21 15:05:13;;;;;;;19.35;11.30;;;1.00;99.90;;;;;;4992423;28;20111;-79
2021/12/21 15:07:39;;;;;;;18.15;10.13;;;0.90;99.90;;;;;;4991282;28;20148;-79
2021/12/21 15:10:07;;;;;;;17.50;10.38;;;0.80;99.90;;;;;;5024252;28;20085;-79
2021/12/21 15:12:33;;;;;;;22.27;10.00;;;0.70;99.90;;;;;;4974970;28;20065;-79
2021/12/21 15:14:59;;;;;;;18.27;10.48;;;0.60;99.90;;;;;;4992390;28;20484;-79
2021/12/21 15:17:25;;;;;;;18.33;10.10;;;0.50;99.90;;;;;;4991130;28;20038;-79
2021/12/21 15:19:51;;;;;;;17.27;9.70;;;0.40;99.90;;;;;;5023970;28;20057;-79
2021/12/21 15:22:18;;;;;;;17.38;10.30;;;0.40;99.90;;;;;;4991304;28;20038;-79
2021/12/21 15:24:44;;;;;;;19.00;10.40;;;0.30;99.90;;;;;;4991146;28;20130;-79
2021/12/21 15:27:10;;;;;;;20.65;11.45;;;0.20;99.90;;;;;;4991028;28;20054;-79
2021/12/21 15:29:37;;;;;;;22.88;11.30;;;0.10;99.90;;;;;;4992121;28;20042;-80
2021/12/21 15:32:03;;;;;;;22.30;12.23;;;0.00;99.90;;;;;;4991662;28;20055;-79
2021/12/21 15:34:29;;;;;;;21.58;11.40;;;-0.10;99.90;;;;;;4990611;28;20061;-79
2021/12/21 15:36:54;;;;;;;20.85;9.30;;;-0.10;99.90;;;;;;4974667;28;20405;-79